Latest Weather Observations for Maroochydore

IDQ60901

Issued at 4:21 pm EST Thursday 25 August 2016 (issued every 10 minutes, with the page automatically refreshed every 10 minutes)

About weather observations | Map of Brisbane area stations | Latest observations for Brisbane area | Other Formats
Station Details ID: 040861 Name: SUNSHINE COAST AIRPORT Lat: -26.60 Lon: 153.09 Height: 3.3 m
Data from the previous 72 hours. | See also: Recent months at Maroochydore
Date/Time
EST
Temp
°C
App
Temp
°C
Dew
Point
°C
Rel
Hum
%
Delta-T
°C
Wind Press
QNH
hPa
Press
MSL
hPa
Rain since
9am
mm
Dir  Spd
km/h
Gust
km/h
Spd
kts
Gust
kts
25/04:00pm 20.5 14.3 2.3 30 8.4 SW 24 32 13 17 1011.2 - 0.0
25/03:30pm 21.0 14.9 2.8 30 8.6 SW 24 33 13 18 1010.8 - 0.0
25/03:00pm 21.5 15.8 2.7 29 8.9 SW 22 35 12 19 1010.5 1010.5 0.0
25/02:30pm 21.9 16.7 3.6 30 8.8 SSW 20 32 11 17 1010.4 - 0.0
25/02:00pm 22.0 17.0 3.6 30 8.9 SW 19 28 10 15 1010.3 - 0.0
25/01:30pm 21.9 16.6 3.1 29 9.0 SW 20 30 11 16 1010.5 - 0.0
25/01:00pm 21.5 16.3 2.2 28 9.0 SW 19 28 10 15 1010.8 - 0.0
25/12:30pm 21.6 16.2 2.3 28 9.0 WSW 20 30 11 16 1010.8 - 0.0
25/12:00pm 21.2 15.6 3.4 31 8.5 WSW 22 32 12 17 1010.9 1010.9 0.0
25/11:30am 20.3 16.3 4.8 36 7.5 WSW 15 22 8 12 1011.2 - 0.0
25/11:00am 19.8 16.1 6.5 42 6.7 W 15 28 8 15 1011.1 - 0.0
25/10:30am 18.4 15.1 6.6 46 5.9 WSW 13 22 7 12 1011.5 - 0.0
25/10:00am 17.1 12.1 6.6 50 5.2 W 22 30 12 16 1011.5 - 0.0
25/09:30am 16.6 12.9 8.1 57 4.3 W 17 24 9 13 1011.8 - 0.0
25/09:00am 16.6 12.5 8.6 59 4.1 W 20 26 11 14 1012.1 1012.1 0.8
25/08:30am 15.9 11.5 8.9 63 3.6 WSW 22 32 12 17 1011.8 - 0.8
25/08:00am 16.0 12.2 9.2 64 3.5 WSW 19 24 10 13 1012.4 - 0.8
25/07:30am 15.8 11.5 9.2 65 3.4 WSW 22 32 12 17 1011.8 - 0.8
25/07:00am 16.0 12.5 10.1 68 3.1 SW 19 24 10 13 1011.1 - 0.8
25/06:30am 15.9 13.8 11.3 74 2.5 S 13 19 7 10 1010.4 - 0.8
25/06:00am 16.1 15.0 11.9 76 2.3 S 9 15 5 8 1011.4 1011.4 0.8
25/05:30am 16.3 14.2 11.2 72 2.7 WSW 13 22 7 12 1009.9 - 0.8
25/05:00am 16.9 15.4 12.0 73 2.7 SW 11 22 6 12 1009.7 - 0.8
25/04:30am 17.1 14.4 13.4 79 2.1 SW 20 30 11 16 1009.8 - 0.8
25/04:00am 17.1 17.6 15.6 91 0.9 WNW 7 11 4 6 1007.9 - 0.8
25/03:30am 17.1 17.2 15.4 90 1.0 N 9 13 5 7 1007.8 - 0.8
25/03:00am 17.5 17.3 15.7 89 1.1 NW 11 15 6 8 1009.3 1009.3 0.8
25/02:30am 17.8 17.3 15.8 88 1.2 NW 13 20 7 11 1008.5 - 0.8
25/02:00am 17.8 17.0 16.0 89 1.1 NNW 15 20 8 11 1008.5 - 0.8
25/01:30am 17.5 17.4 16.0 91 0.9 NNW 11 15 6 8 1007.7 - 0.8
25/01:00am 17.8 17.7 16.1 90 1.0 NW 11 17 6 9 1008.0 - 0.8
25/12:30am 17.6 17.8 16.8 95 0.5 NW 11 15 6 8 1008.3 - 0.8
25/12:00am 17.4 17.7 16.9 97 0.3 NW 11 15 6 8 1008.5 1008.5 0.8
 
Date/Time
EST
Temp
°C
App
Temp
°C
Dew
Point
°C
Rel
Hum
%
Delta-T
°C
Wind Press
QNH
hPa
Press
MSL
hPa
Rain since
9am
mm
Dir  Spd
km/h
Gust
km/h
Spd
kts
Gust
kts
24/11:30pm 17.2 18.3 16.7 97 0.3 WNW 6 9 3 5 1008.5 - 0.8
24/11:00pm 17.1 18.0 16.6 97 0.3 WNW 7 11 4 6 1008.1 - 0.8
24/10:30pm 17.1 17.6 16.6 97 0.3 NW 9 13 5 7 1008.1 - 0.8
24/10:00pm 17.1 17.6 16.6 97 0.3 WNW 9 11 5 6 1008.2 - 0.8
24/09:35pm 17.2 17.7 16.6 96 0.4 NNW 9 13 5 7 1008.5 - 0.8
24/09:30pm 17.2 17.3 16.6 96 0.4 NW 11 15 6 8 1008.5 - 0.8
24/09:00pm 17.6 18.2 16.8 95 0.5 WNW 9 13 5 7 1008.7 1008.7 0.8
24/08:30pm 17.8 18.4 16.8 94 0.6 WNW 9 13 5 7 1008.7 - 0.8
24/08:00pm 18.2 18.4 16.7 91 0.9 NE 11 15 6 8 1007.9 - 0.8
24/07:30pm 18.4 18.7 16.9 91 0.9 ENE 11 13 6 7 1008.1 - 0.8
24/07:00pm 18.2 18.1 16.9 92 0.8 E 13 17 7 9 1008.6 - 0.8
24/06:59pm 18.1 17.9 16.6 91 0.9 E 13 17 7 9 1008.6 - 0.8
24/06:31pm 17.8 17.1 16.5 92 0.8 SE 15 20 8 11 1008.6 - 0.6
24/06:30pm 17.7 17.0 16.4 92 0.8 SE 15 20 8 11 1008.6 - 0.6
24/06:00pm 18.0 17.3 16.3 90 1.0 SSE 15 19 8 10 1008.9 1008.9 0.6
24/05:30pm 18.0 16.9 16.3 90 1.0 SSE 17 22 9 12 1008.6 - 0.6
24/05:22pm 18.0 16.5 16.3 90 1.0 SSE 19 24 10 13 1008.3 - 0.6
24/05:00pm 18.2 16.3 16.7 91 0.9 SE 22 28 12 15 1007.7 - 0.6
24/04:30pm 19.9 18.6 16.9 83 1.8 SE 19 26 10 14 1007.0 - 0.6
24/04:00pm 21.1 21.6 16.5 75 2.8 W 9 11 5 6 1006.8 - 0.6
24/03:30pm 20.9 19.3 16.1 74 2.9 W 19 26 10 14 1006.3 - 0.6
24/03:00pm 20.8 20.2 16.6 77 2.5 W 15 28 8 15 1005.7 1005.7 0.6
24/02:30pm 20.4 20.6 17.6 84 1.7 W 13 20 7 11 1006.1 - 0.6
24/02:00pm 19.7 18.3 17.1 85 1.6 W 20 32 11 17 1006.3 - 0.4
24/01:35pm 22.8 18.8 16.8 69 3.7 W 33 56 18 30 1005.5 - 0.0
24/01:30pm 24.5 21.3 16.2 60 5.1 W 28 39 15 21 1004.9 - 0.0
24/01:00pm 26.0 23.6 16.3 55 6.0 NW 24 39 13 21 1004.9 - 0.0
24/12:30pm 25.9 24.5 17.0 58 5.5 NW 20 32 11 17 1005.2 - 0.0
24/12:00pm 25.4 24.8 17.6 62 4.9 NW 17 32 9 17 1005.7 1005.7 0.0
24/11:30am 24.6 23.7 17.8 66 4.3 NW 19 32 10 17 1006.4 - 0.0
24/11:00am 25.8 25.3 18.7 65 4.5 NW 19 32 10 17 1006.9 - 0.0
24/10:30am 25.4 23.8 18.3 65 4.5 NNW 24 37 13 20 1007.5 - 0.0
24/10:00am 24.4 23.7 18.3 69 3.8 NNW 19 30 10 16 1007.9 - 0.0
24/09:30am 24.8 24.5 20.3 76 2.9 NNW 22 37 12 20 1008.4 - 0.0
24/09:00am 23.0 23.0 19.8 82 2.1 N 19 26 10 14 1008.6 1008.6 0.8
24/08:30am 22.9 23.1 20.1 84 1.8 NNW 19 24 10 13 1008.7 - 0.8
24/08:00am 21.8 22.4 20.3 91 1.0 N 17 22 9 12 1009.0 - 0.8
24/07:30am 21.0 22.0 20.3 96 0.4 N 15 20 8 11 1008.8 - 0.8
24/07:00am 20.4 21.5 19.6 95 0.5 N 13 22 7 12 1008.6 - 0.8
24/06:30am 20.2 21.2 19.5 96 0.4 N 13 20 7 11 1008.3 - 0.8
24/06:00am 19.9 20.2 19.6 98 0.2 N 17 20 9 11 1008.2 1008.2 0.8
24/05:48am 19.6 20.4 19.1 97 0.3 NNW 13 20 7 11 1008.1 - 0.8
24/05:30am 19.6 20.4 19.1 97 0.3 NNW 13 15 7 8 1008.1 - 0.8
24/05:00am 19.5 21.0 19.0 97 0.3 NW 9 15 5 8 1007.8 - 0.8
24/04:30am 19.5 20.7 19.0 97 0.3 N 11 13 6 7 1007.9 - 0.8
24/04:05am 19.1 20.8 18.6 97 0.3 NW 7 13 4 7 1007.9 - 0.8
24/04:00am 19.1 20.5 18.6 97 0.3 NW 9 13 5 7 1008.0 - 0.8
24/03:34am 19.2 21.0 18.7 97 0.3 NNW 7 11 4 6 1008.3 - 0.8
24/03:30am 19.2 21.0 18.7 97 0.3 N 7 9 4 5 1008.2 - 0.8
24/03:17am 19.2 21.0 18.7 97 0.3 NNW 7 13 4 7 1008.4 - 0.8
24/03:00am 19.0 20.7 18.5 97 0.3 NNW 7 11 4 6 1008.8 1008.8 0.6
24/02:56am 19.0 20.7 18.5 97 0.3 NNW 7 7 4 4 1008.8 - 0.6
24/02:30am 18.9 20.7 18.4 97 0.3 WNW 6 7 3 4 1009.0 - 0.2
24/02:17am 19.0 20.7 18.5 97 0.3 WNW 7 9 4 5 1009.2 - 0.2
24/02:05am 19.0 20.9 18.5 97 0.3 NW 6 7 3 4 1009.4 - 0.2
24/02:01am 19.0 20.9 18.5 97 0.3 NNW 6 7 3 4 1009.5 - 0.2
24/02:00am 19.0 20.8 18.3 96 0.4 NNW 6 7 3 4 1009.5 - 0.2
24/01:48am 19.0 19.9 18.3 96 0.4 N 11 15 6 8 1009.6 - 0.2
24/01:44am 19.0 19.5 18.3 96 0.4 N 13 15 7 8 1009.8 - 0.2
24/01:37am 19.1 19.7 18.6 97 0.3 NNE 13 17 7 9 1009.8 - 0.2
24/01:30am 19.1 19.6 18.4 96 0.4 NNE 13 17 7 9 1009.7 - 0.2
24/01:00am 19.1 19.6 18.4 96 0.4 N 13 17 7 9 1010.6 - 0.2
24/12:30am 19.2 19.8 18.5 96 0.4 N 13 17 7 9 1010.8 - 0.2
24/12:12am 19.2 19.4 18.5 96 0.4 N 15 20 8 11 1010.9 - 0.2
24/12:00am 19.0 19.8 18.2 95 0.5 N 11 15 6 8 1011.2 1011.2 0.0
 
Date/Time
EST
Temp
°C
App
Temp
°C
Dew
Point
°C
Rel
Hum
%
Delta-T
°C
Wind Press
QNH
hPa
Press
MSL
hPa
Rain since
9am
mm
Dir  Spd
km/h
Gust
km/h
Spd
kts
Gust
kts
23/11:30pm 19.3 19.5 18.5 95 0.5 N 15 20 8 11 1011.8 - 0.0
23/11:00pm 19.4 19.2 18.4 94 0.6 N 17 24 9 13 1011.8 - 0.0
23/10:38pm 20.0 19.7 18.3 90 1.1 N 17 22 9 12 1012.1 - 0.0
23/10:30pm 20.2 19.7 18.7 91 0.9 N 19 22 10 12 1012.3 - 0.0
23/10:00pm 20.8 21.1 19.5 92 0.8 N 17 24 9 13 1012.6 - 0.0
23/09:44pm 20.9 21.0 19.2 90 1.1 N 17 28 9 15 1012.5 - 0.0
23/09:30pm 20.8 21.5 18.9 89 1.2 N 13 20 7 11 1012.7 - 0.0
23/09:00pm 21.2 21.6 19.1 88 1.3 N 15 24 8 13 1012.9 1012.9 0.0
23/08:30pm 21.0 21.8 19.1 89 1.2 NNW 13 19 7 10 1013.0 - 0.0
23/08:00pm 21.3 21.7 19.0 87 1.5 N 15 20 8 11 1012.9 - 0.0
23/07:30pm 21.3 20.9 18.9 86 1.5 N 19 28 10 15 1012.8 - 0.0
23/07:00pm 21.1 20.5 18.9 87 1.4 N 20 28 11 15 1012.6 - 0.0
23/06:30pm 21.3 20.6 19.6 90 1.1 N 22 32 12 17 1012.2 - 0.0
23/06:00pm 21.2 20.4 19.3 89 1.2 N 22 33 12 18 1012.1 1012.1 0.0
23/05:30pm 21.2 21.0 19.3 89 1.2 N 19 26 10 14 1011.9 - 0.0
23/05:00pm 21.5 20.5 18.9 85 1.6 NNE 22 30 12 16 1011.6 - 0.0
23/04:30pm 21.9 21.1 18.5 81 2.1 NNE 20 30 11 16 1011.4 - 0.0
23/04:00pm 22.4 21.1 18.2 77 2.6 NNE 22 30 12 16 1011.5 - 0.0
23/03:30pm 23.5 22.0 18.6 74 3.1 NNE 24 32 13 17 1011.2 - 0.0
23/03:00pm 23.5 21.2 17.7 70 3.6 NNE 26 33 14 18 1011.2 1011.2 0.0
23/02:30pm 24.1 22.4 18.1 69 3.8 NNE 24 30 13 16 1011.3 - 0.0
23/02:00pm 24.4 22.9 18.6 70 3.7 NNE 24 33 13 18 1011.7 - 0.0
23/01:30pm 24.3 23.0 19.1 73 3.3 NNE 24 33 13 18 1011.8 - 0.0
23/01:00pm 23.1 21.4 17.1 69 3.7 NNE 22 30 12 16 1011.8 - 0.0
23/12:30pm 24.6 24.0 16.6 61 4.9 N 15 26 8 14 1012.3 - 0.0
23/12:00pm 26.5 24.6 15.2 49 6.8 N 19 24 10 13 1013.0 1013.0 0.0
23/11:30am 25.3 23.5 15.6 55 5.9 NNW 19 24 10 13 1013.7 - 0.0
23/11:00am 24.7 23.4 15.9 58 5.3 NNW 17 22 9 12 1013.9 - 0.0
23/10:30am 23.1 22.6 15.9 64 4.3 NW 13 20 7 11 1014.2 - 0.0
23/10:00am 24.7 22.7 17.4 64 4.5 N 24 39 13 21 1014.5 - 0.0
23/09:30am 23.3 21.9 17.1 68 3.8 NNW 20 33 11 18 1014.5 - 0.0
23/09:00am 21.9 20.2 17.1 74 2.9 NNW 22 32 12 17 1014.4 1014.4 0.0
23/08:30am 21.3 20.6 17.3 78 2.5 NNW 17 24 9 13 1014.0 - 0.0
23/08:00am 20.3 19.9 17.1 82 1.9 N 15 22 8 12 1014.0 - 0.0
23/07:30am 19.2 19.9 17.0 87 1.3 NNW 9 13 5 7 1014.2 - 0.0
23/07:00am 17.4 17.8 16.3 93 0.7 NW 9 11 5 6 1014.6 - 0.0
23/06:30am 16.3 16.3 15.3 94 0.6 WNW 9 13 5 7 1014.7 - 0.0
23/06:00am 16.4 16.5 15.4 94 0.6 WNW 9 11 5 6 1014.7 1014.7 0.0
23/05:30am 16.4 16.4 15.3 93 0.6 NW 9 11 5 6 1014.5 - 0.0
23/05:00am 16.9 17.0 15.4 91 0.9 WNW 9 13 5 7 1014.3 - 0.0
23/04:30am 17.2 16.7 15.9 92 0.8 NW 13 15 7 8 1013.9 - 0.0
23/04:00am 17.0 16.4 15.7 92 0.8 NW 13 17 7 9 1014.1 - 0.0
23/03:30am 16.2 15.5 15.4 95 0.5 NW 13 17 7 9 1014.1 - 0.0
23/03:00am 15.8 15.0 15.0 95 0.5 NW 13 15 7 8 1014.2 1014.2 0.0
23/02:30am 16.2 15.8 15.1 93 0.6 NW 11 15 6 8 1014.4 - 0.0
23/02:00am 16.3 15.9 15.2 93 0.6 NW 11 15 6 8 1014.4 - 0.0
23/01:30am 16.7 16.4 15.4 92 0.8 NW 11 15 6 8 1014.5 - 0.0
23/01:00am 16.9 16.3 15.6 92 0.8 NW 13 15 7 8 1015.0 - 0.0
23/12:30am 17.0 16.8 15.7 92 0.8 NW 11 15 6 8 1015.3 - 0.0
23/12:00am 16.8 16.6 15.7 93 0.6 NW 11 15 6 8 1015.6 1015.6 0.0
 
Date/Time
EST
Temp
°C
App
Temp
°C
Dew
Point
°C
Rel
Hum
%
Delta-T
°C
Wind Press
QNH
hPa
Press
MSL
hPa
Rain since
9am
mm
Dir  Spd
km/h
Gust
km/h
Spd
kts
Gust
kts
22/11:30pm 16.8 16.2 15.7 93 0.6 NW 13 15 7 8 1015.5 - 0.0
22/11:00pm 16.7 16.5 15.6 93 0.6 NW 11 13 6 7 1015.6 - 0.0
22/10:30pm 17.0 17.1 15.5 91 0.9 NW 9 13 5 7 1015.5 - 0.0
22/10:00pm 17.3 17.2 16.0 92 0.8 NW 11 15 6 8 1015.4 - 0.0
22/09:30pm 17.5 17.9 16.2 92 0.8 NW 9 13 5 7 1015.3 - 0.0
22/09:00pm 17.9 17.9 16.2 90 1.0 WNW 11 15 6 8 1015.5 1015.5 0.0
22/08:30pm 19.2 18.5 16.4 84 1.7 N 15 19 8 10 1015.2 - 0.0
22/08:00pm 19.3 18.6 16.5 84 1.7 N 15 20 8 11 1015.0 - 0.0
22/07:30pm 19.7 18.3 16.9 84 1.7 N 20 26 11 14 1014.9 - 0.0
22/07:00pm 19.5 18.1 16.5 83 1.8 N 19 26 10 14 1014.8 - 0.0
22/06:30pm 19.8 18.4 16.6 82 1.9 N 19 28 10 15 1014.5 - 0.0
22/06:00pm 19.9 18.2 16.3 80 2.2 N 20 30 11 16 1014.5 1014.5 0.0
22/05:30pm 19.9 18.8 16.3 80 2.2 N 17 24 9 13 1014.6 - 0.0
22/05:00pm 20.4 17.9 16.2 77 2.5 NNE 24 32 13 17 1014.5 - 0.0
22/04:30pm 20.8 18.3 16.2 75 2.8 NNE 24 33 13 18 1014.4 - 0.0

Latest Capital City Observations: Canberra | Sydney | Melbourne | Brisbane | Adelaide | Perth | Hobart | Darwin

Other Formats:

Comma delimited format used in spreadsheet applications
http://www.bom.gov.au/fwo/IDQ60901/IDQ60901.94569.axf

JavaScript Object Notation format (JSON) in row-major order
http://www.bom.gov.au/fwo/IDQ60901/IDQ60901.94569.json